Time;durP1;ratioP1;P1;durP2;ratioP2;P2;SDS_P1;SDS_P2;PMS_P1;PMS_P2;Temp;Humidity;BMP_temperature;BMP_pressure;BME280_temperature;BME280_humidity;BME280_pressure;Samples;Min_cycle;Max_cycle;Signal;HPM_P1;HPM_P2
2022/09/20 00:01:45;;;;;;;2.50;2.00;;;;;;;10.94;87.65;94788.50;5155098;27;20616;-77
2022/09/20 00:04:11;;;;;;;2.20;2.00;;;;;;;10.87;88.00;94780.00;5154669;27;20217;-78
2022/09/20 00:06:41;;;;;;;3.73;2.30;;;;;;;10.87;86.66;94785.19;5154939;27;20199;-77
2022/09/20 00:09:08;;;;;;;2.10;2.00;;;;;;;10.87;86.53;94793.00;5154346;27;20202;-77
2022/09/20 00:11:36;;;;;;;2.40;2.20;;;;;;;10.81;86.70;94786.88;5154191;27;20214;-76
2022/09/20 00:14:07;;;;;;;2.60;2.30;;;;;;;10.76;87.48;94802.28;5154521;27;20195;-77
2022/09/20 00:16:36;;;;;;;2.47;2.27;;;;;;;10.76;87.53;94799.69;5141642;27;20192;-77
2022/09/20 00:19:05;;;;;;;2.70;2.40;;;;;;;10.76;86.98;94801.50;5153551;27;20234;-76
2022/09/20 00:21:35;;;;;;;2.83;2.40;;;;;;;10.69;87.10;94787.78;5154874;27;20521;-77
2022/09/20 00:24:05;;;;;;;2.43;2.00;;;;;;;10.72;86.55;94795.16;5154475;27;20195;-76
2022/09/20 00:26:32;;;;;;;2.40;2.07;;;;;;;10.72;86.83;94790.75;5152574;27;20946;-76
2022/09/20 00:28:59;;;;;;;3.07;2.10;;;;;;;10.66;87.48;94785.59;5135066;27;20204;-77
2022/09/20 00:31:26;;;;;;;2.30;2.10;;;;;;;10.65;87.65;94784.00;5154477;27;20218;-78
2022/09/20 00:36:38;;;;;;;2.20;2.00;;;;;;;10.65;87.27;94774.41;5153858;27;20198;-77
2022/09/20 00:39:06;;;;;;;2.10;1.90;;;;;;;10.57;87.42;94776.50;5154071;27;20194;-77
2022/09/20 00:41:33;;;;;;;2.77;1.83;;;;;;;10.52;87.84;94771.16;5154245;27;20201;-76
2022/09/20 00:44:00;;;;;;;2.43;2.20;;;;;;;10.58;88.30;94793.69;5153724;27;20191;-76
2022/09/20 00:46:34;;;;;;;2.40;2.20;;;;;;;10.53;87.69;94781.34;5142463;27;20203;-77
2022/09/20 00:49:06;;;;;;;3.53;1.97;;;;;;;10.53;87.93;94788.34;5149944;27;20209;-77
2022/09/20 00:51:38;;;;;;;2.50;2.00;;;;;;;10.46;88.58;94785.00;5152024;27;20226;-77
2022/09/20 00:54:10;;;;;;;2.67;1.70;;;;;;;10.49;88.08;94790.56;5154201;27;20199;-77
2022/09/20 00:56:42;;;;;;;1.90;1.80;;;;;;;10.44;88.67;94789.63;5149481;27;20214;-77
2022/09/20 00:59:15;;;;;;;1.97;1.70;;;;;;;10.40;87.79;94791.84;5146314;27;20194;-77
2022/09/20 01:01:44;;;;;;;2.47;1.90;;;;;;;10.41;86.88;94797.84;5153524;27;20202;-77
2022/09/20 01:04:13;;;;;;;2.30;2.10;;;;;;;10.37;87.05;94794.06;5153387;27;20202;-77
2022/09/20 01:06:42;;;;;;;1.90;1.80;;;;;;;10.41;87.71;94793.44;5153709;27;20201;-77
2022/09/20 01:09:10;;;;;;;2.20;2.00;;;;;;;10.51;86.20;94791.13;5152700;27;20205;-76
2022/09/20 01:11:37;;;;;;;3.20;2.13;;;;;;;10.55;85.47;94794.91;5153615;27;20230;-77
2022/09/20 01:14:04;;;;;;;2.70;2.17;;;;;;;10.57;84.91;94787.69;5152762;27;20583;-77
2022/09/20 01:16:33;;;;;;;2.60;2.40;;;;;;;10.55;85.30;94792.31;5152959;27;20195;-77
2022/09/20 01:19:06;;;;;;;2.77;2.57;;;;;;;10.52;84.35;94799.72;5153365;27;20209;-77
2022/09/20 01:21:33;;;;;;;2.60;2.40;;;;;;;10.52;84.25;94790.13;5153446;27;20198;-77
2022/09/20 01:24:09;;;;;;;2.60;2.40;;;;;;;10.48;83.18;94791.56;5153951;27;20195;-78
2022/09/20 01:27:09;;;;;;;2.60;2.40;;;;;;;10.45;82.94;94789.38;5152307;27;20202;-77
2022/09/20 01:29:53;;;;;;;3.30;2.77;;;;;;;10.43;83.22;94782.81;5153125;27;20206;-78
2022/09/20 01:32:23;;;;;;;3.93;2.60;;;;;;;10.49;83.34;94779.38;5153203;27;20218;-76
2022/09/20 01:34:57;;;;;;;3.57;2.67;;;;;;;10.37;83.96;94783.66;5152841;27;20716;-77
2022/09/20 01:37:27;;;;;;;2.70;2.50;;;;;;;10.30;83.77;94778.56;5153013;27;20198;-78
2022/09/20 01:40:03;;;;;;;3.23;2.43;;;;;;;10.24;84.72;94782.75;5153290;27;20203;-78
2022/09/20 01:42:33;;;;;;;2.63;2.43;;;;;;;9.94;86.32;94778.38;5152474;27;20198;-78
2022/09/20 01:45:11;;;;;;;2.50;2.30;;;;;;;9.80;87.65;94789.88;5138998;27;20422;-77
2022/09/20 01:47:46;;;;;;;3.10;2.80;;;;;;;9.85;86.75;94784.84;5142096;27;20198;-77
2022/09/20 01:50:23;;;;;;;3.57;3.20;;;;;;;9.87;87.70;94801.00;5152382;27;20678;-77
2022/09/20 01:53:22;;;;;;;3.47;3.07;;;;;;;9.64;89.14;94791.16;5145963;27;20230;-77
2022/09/20 01:56:11;;;;;;;4.43;2.63;;;;;;;9.60;90.94;94795.19;5148787;27;20194;-77
2022/09/20 01:59:20;;;;;;;3.00;2.70;;;;;;;9.51;91.48;94793.81;5152591;27;20199;-77
2022/09/20 02:02:25;;;;;;;3.80;2.63;;;;;;;9.39;91.89;94791.09;5153022;27;20676;-76
2022/09/20 02:05:18;;;;;;;3.50;3.20;;;;;;;9.50;91.30;94779.25;5110399;27;20205;-76
2022/09/20 02:08:08;;;;;;;3.30;3.00;;;;;;;9.57;90.62;94770.44;5152519;27;20668;-76
2022/09/20 02:11:08;;;;;;;3.30;2.63;;;;;;;9.65;90.17;94764.19;5152039;27;20226;-78
2022/09/20 02:13:57;;;;;;;3.97;3.37;;;;;;;9.65;90.03;94761.59;5152275;27;20583;-78
2022/09/20 02:16:40;;;;;;;9.10;3.33;;;;;;;9.35;90.87;94758.78;5152324;27;20206;-77
2022/09/20 02:19:44;;;;;;;13.23;3.60;;;;;;;9.35;91.28;94760.59;5151950;27;20207;-78
2022/09/20 02:22:24;;;;;;;4.63;3.30;;;;;;;9.45;90.57;94764.31;5144933;27;20209;-77
2022/09/20 02:25:01;;;;;;;3.07;2.77;;;;;;;9.41;89.93;94751.97;5151544;27;20195;-77
2022/09/20 02:27:37;;;;;;;4.67;2.97;;;;;;;9.49;89.89;94762.91;5152222;27;20279;-78
2022/09/20 02:30:19;;;;;;;3.47;2.80;;;;;;;9.53;88.34;94768.47;5151825;27;20639;-77
2022/09/20 02:33:05;;;;;;;4.43;3.70;;;;;;;9.52;88.17;94749.50;5135564;27;20219;-77
2022/09/20 02:35:56;;;;;;;4.53;3.40;;;;;;;9.50;89.54;94772.28;5147444;27;20209;-78
2022/09/20 02:38:41;;;;;;;5.00;3.20;;;;;;;9.36;89.93;94762.16;5152145;27;20202;-78
2022/09/20 02:41:25;;;;;;;5.47;3.50;;;;;;;9.34;91.24;94769.38;5142243;27;20247;-78
2022/09/20 02:44:02;;;;;;;6.23;3.47;;;;;;;9.34;91.95;94767.56;5151964;27;20202;-77
2022/09/20 02:46:33;;;;;;;5.70;4.17;;;;;;;9.29;93.02;94777.78;5145329;27;20198;-78
2022/09/20 02:49:07;;;;;;;5.50;3.80;;;;;;;9.22;93.86;94782.19;5151827;27;20198;-78
2022/09/20 02:51:40;;;;;;;6.90;4.10;;;;;;;9.19;95.08;94789.56;5151685;27;20238;-77
2022/09/20 02:54:19;;;;;;;4.17;3.03;;;;;;;9.16;95.01;94788.19;5151430;27;20553;-75
2022/09/20 02:56:54;;;;;;;4.17;3.50;;;;;;;9.01;95.89;94785.84;5148449;27;20210;-76
2022/09/20 02:59:31;;;;;;;3.90;3.50;;;;;;;9.04;96.86;94782.84;5151556;27;20197;-75
2022/09/20 03:02:09;;;;;;;5.33;3.67;;;;;;;9.04;96.39;94788.03;5151560;27;20661;-75
2022/09/20 03:04:48;;;;;;;4.20;3.73;;;;;;;9.01;96.90;94790.22;5146791;27;20198;-75
2022/09/20 03:07:25;;;;;;;4.23;3.83;;;;;;;8.98;96.99;94780.28;5151584;27;20205;-75
2022/09/20 03:10:09;;;;;;;3.90;3.50;;;;;;;8.98;96.46;94788.06;5152017;27;20206;-75
2022/09/20 03:12:48;;;;;;;4.00;3.60;;;;;;;8.96;97.04;94783.09;5151422;27;20605;-75
2022/09/20 03:15:27;;;;;;;4.03;3.50;;;;;;;8.91;97.33;94784.69;5151210;27;20640;-74
2022/09/20 03:18:07;;;;;;;5.10;3.87;;;;;;;8.90;97.18;94783.09;5151603;27;20198;-73
2022/09/20 03:20:39;;;;;;;3.93;3.47;;;;;;;8.86;97.51;94793.06;5151325;27;20687;-74
2022/09/20 03:23:20;;;;;;;4.33;3.30;;;;;;;8.87;97.24;94794.69;5151619;27;20218;-74
2022/09/20 03:25:56;;;;;;;3.97;3.50;;;;;;;8.85;97.27;94783.72;5144651;27;20202;-74
2022/09/20 03:28:46;;;;;;;5.40;3.63;;;;;;;8.86;97.24;94793.06;5151026;27;20604;-75
2022/09/20 03:31:25;;;;;;;5.27;4.30;;;;;;;8.91;97.28;94798.47;5142467;27;20960;-75
2022/09/20 03:34:06;;;;;;;4.33;3.93;;;;;;;8.90;97.51;94796.84;5155018;27;20423;-77
2022/09/20 03:36:50;;;;;;;3.80;3.47;;;;;;;8.93;96.60;94801.63;5155011;27;20198;-76
2022/09/20 03:39:37;;;;;;;4.50;3.40;;;;;;;8.88;96.59;94798.06;5154835;27;20199;-76
2022/09/20 03:42:18;;;;;;;4.10;3.20;;;;;;;8.87;97.48;94796.47;5155315;27;20189;-76
2022/09/20 03:45:19;;;;;;;3.77;3.47;;;;;;;8.83;97.58;94795.28;5155354;27;20199;-76
2022/09/20 03:48:05;;;;;;;3.80;3.43;;;;;;;8.79;96.92;94802.69;5146392;27;20196;-77
2022/09/20 03:50:45;;;;;;;4.87;3.40;;;;;;;8.82;96.33;94802.28;5147650;27;20203;-75
2022/09/20 03:53:35;;;;;;;4.83;3.50;;;;;;;8.85;96.74;94801.06;5154404;27;20696;-76
2022/09/20 03:56:21;;;;;;;4.13;3.63;;;;;;;8.93;95.51;94799.03;5151791;27;20657;-75
2022/09/20 03:59:14;;;;;;;5.37;3.90;;;;;;;8.92;94.87;94802.63;5154380;27;20210;-73
2022/09/20 04:02:04;;;;;;;6.47;3.60;;;;;;;8.92;95.46;94802.63;5154238;27;20285;-74
2022/09/20 04:04:39;;;;;;;8.30;5.87;;;;;;;8.84;94.52;94800.25;5154223;27;20217;-73
2022/09/20 04:07:15;;;;;;;6.73;5.83;;;;;;;8.67;95.27;94800.91;5154285;27;20262;-73
2022/09/20 04:10:04;;;;;;;6.17;4.83;;;;;;;8.68;95.49;94813.66;5154671;27;20198;-75
2022/09/20 04:12:43;;;;;;;9.43;7.03;;;;;;;8.78;94.89;94816.63;5154243;27;20210;-73
2022/09/20 04:15:29;;;;;;;8.70;7.07;;;;;;;8.80;94.26;94827.56;5143861;27;22341;-73
2022/09/20 04:18:02;;;;;;;5.43;4.50;;;;;;;8.81;94.92;94823.19;5145516;27;20195;-73
2022/09/20 04:20:37;;;;;;;10.47;7.90;;;;;;;8.80;94.57;94826.78;5142740;27;20207;-74
2022/09/20 04:23:16;;;;;;;12.57;9.47;;;;;;;8.81;95.04;94833.56;5146910;27;20194;-74
2022/09/20 04:25:47;;;;;;;16.47;10.43;;;;;;;8.68;94.65;94825.81;5147871;27;20285;-74
2022/09/20 04:28:19;;;;;;;17.57;11.80;;;;;;;8.67;96.27;94837.16;5153613;27;20221;-74
2022/09/20 04:30:49;;;;;;;9.83;6.23;;;;;;;8.58;96.35;94839.16;5154337;27;20198;-73
2022/09/20 04:33:23;;;;;;;15.97;10.20;;;;;;;8.61;96.64;94835.38;5154260;27;20219;-74
2022/09/20 04:38:48;;;;;;;10.53;9.03;;;;;;;8.64;96.56;94838.38;5148620;27;20331;-75
2022/09/20 04:41:40;;;;;;;18.20;10.87;;;;;;;8.39;98.12;94832.22;5153764;27;20209;-74
2022/09/20 04:44:40;;;;;;;10.60;7.13;;;;;;;8.43;98.48;94841.16;5149222;27;20233;-75
2022/09/20 04:47:48;;;;;;;13.67;9.13;;;;;;;8.46;97.90;94835.59;5148536;27;20196;-73
2022/09/20 04:50:50;;;;;;;19.17;12.83;;;;;;;8.47;98.98;94838.00;5148622;27;20206;-71
2022/09/20 04:53:51;;;;;;;19.53;13.70;;;;;;;8.54;99.01;94838.75;5152734;27;20609;-72
2022/09/20 04:56:21;;;;;;;23.17;12.50;;;;;;;8.63;98.28;94846.34;5104542;27;20199;-72
2022/09/20 04:58:57;;;;;;;16.80;12.67;;;;;;;8.60;98.18;94834.56;5139382;27;20206;-75
2022/09/20 05:02:11;;;;;;;22.37;14.40;;;;;;;8.75;97.18;94842.94;5142364;27;20195;-75
2022/09/20 05:05:17;;;;;;;18.23;12.73;;;;;;;8.74;97.26;94830.19;5130074;27;20621;-75
2022/09/20 05:08:25;;;;;;;17.70;11.30;;;;;;;8.89;96.39;94831.53;5147990;27;20198;-76
2022/09/20 05:11:29;;;;;;;10.67;6.97;;;;;;;8.86;97.13;94842.31;5153660;27;20199;-76
2022/09/20 05:14:37;;;;;;;5.37;3.50;;;;;;;8.86;96.77;94839.72;5152646;27;20218;-76
2022/09/20 05:17:19;;;;;;;6.20;3.50;;;;;;;8.94;96.52;94852.47;5122161;27;20202;-77
2022/09/20 05:20:01;;;;;;;5.27;4.23;;;;;;;8.90;95.80;94851.28;5152324;27;20195;-75
2022/09/20 05:23:00;;;;;;;8.97;6.27;;;;;;;8.92;96.10;94851.06;5152398;27;20225;-75
2022/09/20 05:25:43;;;;;;;10.97;7.37;;;;;;;8.95;96.88;94861.03;5133959;27;20201;-79
2022/09/20 05:28:20;;;;;;;18.83;12.27;;;;;;;8.98;95.50;94856.25;5082325;27;20203;-79
2022/09/20 05:30:50;;;;;;;18.80;13.17;;;;;;;9.05;96.35;94858.84;5128670;27;20207;-78
2022/09/20 05:33:24;;;;;;;14.33;8.10;;;;;;;9.19;95.21;94857.78;5127964;27;20224;-79
2022/09/20 05:36:05;;;;;;;5.53;4.77;;;;;;;9.26;94.34;94858.59;5131989;27;20195;-79
2022/09/20 05:38:43;;;;;;;7.57;6.30;;;;;;;9.29;95.12;94858.19;5133282;27;20199;-78
2022/09/20 05:41:19;;;;;;;5.17;4.37;;;;;;;9.18;95.42;94863.19;5132193;27;20206;-78
2022/09/20 05:43:55;;;;;;;3.10;2.73;;;;;;;9.06;97.20;94853.44;5135007;27;20198;-78
2022/09/20 05:46:35;;;;;;;4.00;3.00;;;;;;;8.94;96.86;94847.31;5128888;27;20222;-81
2022/09/20 05:49:12;;;;;;;4.90;3.40;;;;;;;9.20;96.44;94867.19;5131048;27;20737;-78
2022/09/20 05:51:56;;;;;;;6.07;3.53;;;;;;;9.13;96.37;94851.63;5128403;27;20249;-78
2022/09/20 05:54:47;;;;;;;6.17;4.40;;;;;;;9.23;97.71;94859.00;5128717;27;20310;-78
2022/09/20 05:57:31;;;;;;;6.43;4.67;;;;;;;9.40;95.37;94860.13;5131336;27;20219;-78
2022/09/20 06:00:03;;;;;;;6.80;4.80;;;;;;;9.35;94.84;94857.34;5128013;27;20300;-76
2022/09/20 06:02:40;;;;;;;8.57;5.10;;;;;;;9.52;95.00;94863.66;5134376;27;20259;-78
2022/09/20 06:05:15;;;;;;;9.77;5.40;;;;;;;9.58;94.77;94865.41;5129148;27;20241;-78
2022/09/20 06:08:04;;;;;;;3.80;3.03;;;;;;;9.66;93.67;94854.84;5134270;27;20191;-78
2022/09/20 06:10:53;;;;;;;4.43;3.40;;;;;;;9.59;94.65;94859.25;5127876;27;20195;-78
2022/09/20 06:13:42;;;;;;;4.80;3.50;;;;;;;9.62;95.68;94860.63;5132541;27;20276;-79
2022/09/20 06:16:17;;;;;;;3.80;2.50;;;;;;;9.70;95.25;94868.16;5127907;27;20293;-79
2022/09/20 06:18:55;;;;;;;4.60;2.70;;;;;;;9.78;95.29;94860.16;5129387;27;20293;-76
2022/09/20 06:21:35;;;;;;;3.53;2.20;;;;;;;9.78;95.66;94854.97;5131732;27;20199;-77
2022/09/20 06:24:05;;;;;;;5.43;2.50;;;;;;;9.89;95.54;94861.28;5129493;27;20277;-75
2022/09/20 06:26:37;;;;;;;3.67;2.40;;;;;;;9.89;94.18;94861.28;5127956;27;20196;-76
2022/09/20 06:29:07;;;;;;;13.10;3.30;;;;;;;10.01;94.68;94852.66;5129198;27;20211;-79
2022/09/20 06:31:33;;;;;;;4.67;2.47;;;;;;;10.03;94.08;94860.22;5130022;27;20709;-79
2022/09/20 06:34:05;;;;;;;2.30;2.10;;;;;;;10.15;93.50;94861.97;5129013;27;20219;-79
2022/09/20 06:42:17;;;;;;;2.30;2.07;;;;;;;10.04;91.30;94860.00;5128973;27;20194;-80
2022/09/20 06:44:44;;;;;;;3.53;2.10;;;;;;;9.93;91.25;94846.88;5132322;27;20225;-75
2022/09/20 06:47:11;;;;;;;2.13;1.93;;;;;;;9.98;91.01;94860.84;5119866;27;20214;-75
2022/09/20 06:49:40;;;;;;;2.77;2.03;;;;;;;10.17;90.60;94852.16;5125042;27;20211;-74
2022/09/20 06:52:09;;;;;;;2.37;1.97;;;;;;;10.24;89.56;94846.94;5129616;27;20231;-72
2022/09/20 06:54:37;;;;;;;8.43;5.10;;;;;;;10.39;89.20;94852.59;5105704;27;20226;-73
2022/09/20 06:57:06;;;;;;;5.13;2.30;;;;;;;10.49;88.07;94862.53;5130787;27;20566;-73
2022/09/20 06:59:34;;;;;;;1.70;1.60;;;;;;;10.47;87.15;94875.72;5132966;27;20199;-73
2022/09/20 07:02:01;;;;;;;1.97;1.63;;;;;;;10.42;87.28;94874.78;5132349;27;20721;-74
2022/09/20 07:04:28;;;;;;;2.70;2.20;;;;;;;10.46;86.96;94863.75;5125260;27;20206;-73
2022/09/20 07:07:00;;;;;;;3.10;1.90;;;;;;;10.60;85.93;94877.41;5135822;27;20202;-75
2022/09/20 07:09:27;;;;;;;2.77;1.80;;;;;;;10.67;85.63;94871.19;5133087;27;20366;-74
2022/09/20 07:11:54;;;;;;;3.40;2.13;;;;;;;10.72;86.12;94866.13;5135988;27;20279;-75
2022/09/20 07:14:23;;;;;;;4.33;2.70;;;;;;;10.90;84.94;94874.97;5133580;27;20223;-74
2022/09/20 07:16:52;;;;;;;4.07;2.97;;;;;;;10.92;85.04;94871.16;5137133;27;20203;-75
2022/09/20 07:19:18;;;;;;;3.60;2.50;;;;;;;10.93;85.37;94869.34;5132980;27;20203;-75
2022/09/20 07:21:45;;;;;;;3.77;2.10;;;;;;;10.91;85.94;94869.53;5138615;27;20666;-74
2022/09/20 07:24:13;;;;;;;5.27;2.30;;;;;;;11.02;85.44;94879.25;5131687;27;20195;-74
2022/09/20 07:26:54;;;;;;;3.50;2.20;;;;;;;11.03;85.37;94874.84;5133831;27;20198;-74
2022/09/20 07:29:21;;;;;;;3.53;2.03;;;;;;;10.97;85.01;94875.69;5136987;27;20242;-75
2022/09/20 07:31:49;;;;;;;2.80;2.50;;;;;;;11.11;85.41;94877.19;5133842;27;20213;-74
2022/09/20 07:34:19;;;;;;;2.57;2.10;;;;;;;11.19;85.11;94869.09;5136509;27;20758;-75
2022/09/20 07:36:46;;;;;;;2.73;1.93;;;;;;;11.16;82.61;94875.53;5133675;27;20722;-75
2022/09/20 07:39:13;;;;;;;2.30;1.97;;;;;;;11.27;81.92;94869.59;5136579;27;20203;-75
2022/09/20 07:41:40;;;;;;;4.13;1.90;;;;;;;11.30;81.26;94876.16;5130583;27;20211;-75
2022/09/20 07:44:20;;;;;;;3.60;1.97;;;;;;;11.33;81.11;94871.34;5139133;27;20584;-74
2022/09/20 07:46:48;;;;;;;1.90;1.80;;;;;;;11.35;80.99;94871.09;5134121;27;20221;-74
2022/09/20 07:49:15;;;;;;;3.97;1.93;;;;;;;11.43;80.44;94859.63;5134474;27;20203;-75
2022/09/20 07:51:43;;;;;;;2.27;2.07;;;;;;;11.50;78.53;94860.34;5134984;27;20238;-75
2022/09/20 07:54:10;;;;;;;1.73;1.60;;;;;;;11.45;76.39;94858.41;5128904;27;20211;-75
2022/09/20 07:56:37;;;;;;;4.73;1.57;;;;;;;11.51;74.87;94854.94;5136398;27;20209;-75
2022/09/20 07:59:04;;;;;;;5.30;2.27;;;;;;;11.56;76.76;94862.88;5130869;27;20252;-75
2022/09/20 08:01:31;;;;;;;3.40;2.37;;;;;;;11.63;76.65;94860.97;5138019;27;20203;-75
2022/09/20 08:03:58;;;;;;;3.00;2.00;;;;;;;11.76;77.03;94855.63;5131623;27;20199;-74
2022/09/20 08:06:25;;;;;;;2.80;2.47;;;;;;;11.87;76.94;94857.50;5138563;27;20611;-75
2022/09/20 08:08:53;;;;;;;7.13;2.63;;;;;;;12.01;72.89;94854.69;5133023;27;20202;-75
2022/09/20 08:11:24;;;;;;;4.37;2.80;;;;;;;12.10;72.33;94863.78;5135134;27;20783;-75
2022/09/20 08:13:53;;;;;;;4.07;2.47;;;;;;;12.14;71.06;94857.13;5131480;27;20700;-75
2022/09/20 08:16:21;;;;;;;2.60;1.70;;;;;;;12.30;68.04;94859.09;5137844;27;20207;-75
2022/09/20 08:18:50;;;;;;;3.20;2.50;;;;;;;12.39;67.58;94861.16;5131672;27;20219;-75
2022/09/20 08:21:18;;;;;;;3.23;2.10;;;;;;;12.45;70.17;94862.09;5134633;27;20202;-75
2022/09/20 08:23:47;;;;;;;5.87;2.33;;;;;;;12.58;70.73;94872.31;5134456;27;20559;-75
2022/09/20 08:26:19;;;;;;;3.63;1.60;;;;;;;12.75;66.29;94870.63;5130931;27;20276;-75
2022/09/20 08:28:48;;;;;;;3.70;2.47;;;;;;;12.87;64.92;94868.03;5135075;27;20198;-74
2022/09/20 08:31:18;;;;;;;3.73;1.90;;;;;;;12.85;64.86;94870.84;5127715;27;20204;-75
2022/09/20 08:33:46;;;;;;;3.87;1.60;;;;;;;12.92;63.28;94865.53;5136441;27;20214;-74
2022/09/20 08:36:15;;;;;;;2.37;1.40;;;;;;;12.91;63.38;94859.53;5130034;27;20210;-74
2022/09/20 08:38:42;;;;;;;4.00;1.90;;;;;;;13.06;63.54;94848.63;5139020;27;20207;-74
2022/09/20 08:41:14;;;;;;;1.67;1.43;;;;;;;13.36;60.04;94840.69;5130448;27;20237;-75
2022/09/20 08:43:48;;;;;;;3.40;1.20;;;;;;;13.51;59.09;94841.78;5135859;27;20196;-75
2022/09/20 08:46:17;;;;;;;1.57;1.47;;;;;;;13.80;58.70;94849.63;5129309;27;20209;-75
2022/09/20 08:48:45;;;;;;;1.40;1.30;;;;;;;14.02;55.99;94851.38;5131748;27;20677;-75
2022/09/20 08:51:14;;;;;;;1.63;1.43;;;;;;;14.21;56.93;94842.31;5131694;27;20309;-75
2022/09/20 08:53:47;;;;;;;1.60;1.40;;;;;;;14.36;57.03;94841.81;5127888;27;20215;-75
2022/09/20 08:56:14;;;;;;;3.20;1.60;;;;;;;14.51;58.27;94847.28;5132060;27;20552;-75
2022/09/20 08:58:43;;;;;;;3.23;2.67;;;;;;;14.53;58.53;94836.56;5132716;27;20200;-73
2022/09/20 09:01:17;;;;;;;3.93;1.60;;;;;;;14.17;58.77;94832.53;5132433;27;20569;-73
2022/09/20 09:03:44;;;;;;;1.67;1.50;;;;;;;13.98;59.63;94839.81;5133186;27;20578;-75
2022/09/20 09:06:15;;;;;;;2.93;1.90;;;;;;;13.85;60.16;94828.84;5134000;27;20199;-75
2022/09/20 09:08:43;;;;;;;3.20;2.00;;;;;;;13.97;60.25;94829.56;5131796;27;20203;-75
2022/09/20 09:11:15;;;;;;;3.50;2.30;;;;;;;14.23;58.51;94836.06;5136340;27;20203;-75
2022/09/20 09:13:51;;;;;;;2.37;1.77;;;;;;;14.36;58.17;94826.13;5131713;27;20242;-75
2022/09/20 09:16:20;;;;;;;2.27;1.70;;;;;;;14.45;57.61;94822.09;5132134;27;20198;-75
2022/09/20 09:18:50;;;;;;;1.87;1.63;;;;;;;14.34;56.64;94824.78;5132255;27;20210;-75
2022/09/20 09:21:19;;;;;;;3.53;1.90;;;;;;;14.22;58.03;94819.56;5132182;27;20697;-74
2022/09/20 09:23:51;;;;;;;3.30;1.80;;;;;;;14.25;58.79;94806.03;5133321;27;21071;-74
2022/09/20 09:26:22;;;;;;;2.20;1.90;;;;;;;14.69;58.62;94807.00;5132137;27;20255;-77
2022/09/20 09:29:14;;;;;;;3.13;1.90;;;;;;;15.10;55.85;94821.47;5131346;27;20600;-81
2022/09/20 09:31:43;;;;;;;2.20;1.60;;;;;;;15.50;53.75;94808.13;5129406;27;20650;-81
2022/09/20 09:34:24;;;;;;;2.23;1.70;;;;;;;15.37;52.80;94805.84;5133950;27;20227;-81
2022/09/20 09:36:53;;;;;;;3.13;1.90;;;;;;;15.35;52.22;94799.00;5130180;27;20203;-81
2022/09/20 09:39:25;;;;;;;2.97;2.10;;;;;;;15.74;52.60;94783.25;5134943;27;20235;-81
2022/09/20 09:41:52;;;;;;;3.70;2.23;;;;;;;16.48;50.23;94794.66;5132842;27;20225;-81
2022/09/20 09:44:24;;;;;;;1.40;1.30;;;;;;;17.02;47.47;94783.03;5129440;27;20210;-81
2022/09/20 09:46:52;;;;;;;1.30;1.20;;;;;;;17.05;47.57;94791.44;5134671;27;20195;-81
2022/09/20 09:49:21;;;;;;;2.93;2.00;;;;;;;16.67;47.76;94795.13;5134918;27;20204;-81
2022/09/20 09:52:03;;;;;;;3.83;2.10;;;;;;;16.23;48.28;94802.34;5134765;27;20237;-81
2022/09/20 09:54:34;;;;;;;1.60;1.50;;;;;;;16.11;48.72;94797.25;5132535;27;20218;-81
2022/09/20 09:57:16;;;;;;;1.40;1.30;;;;;;;15.92;47.89;94782.91;5137407;27;20199;-82
2022/09/20 10:00:02;;;;;;;1.60;1.30;;;;;;;16.54;46.73;94791.06;5128787;27;20191;-81
2022/09/20 10:02:48;;;;;;;1.50;1.40;;;;;;;17.05;45.98;94794.84;5134245;27;20568;-81
2022/09/20 10:05:22;;;;;;;3.13;1.40;;;;;;;17.42;45.36;94785.03;5131594;27;20199;-80
2022/09/20 10:07:59;;;;;;;1.37;1.27;;;;;;;17.26;45.64;94787.84;5133931;27;20203;-81
2022/09/20 10:10:33;;;;;;;4.17;1.80;;;;;;;17.07;46.64;94790.13;5137449;27;20202;-81
2022/09/20 10:13:14;;;;;;;3.13;1.60;;;;;;;17.46;45.66;94785.31;5131552;27;20202;-81
2022/09/20 10:15:51;;;;;;;1.87;1.67;;;;;;;18.02;44.04;94789.72;5132505;27;20215;-81
2022/09/20 10:18:33;;;;;;;1.77;1.67;;;;;;;18.16;43.36;94792.63;5129594;27;20617;-81
2022/09/20 10:21:11;;;;;;;1.70;1.40;;;;;;;18.53;43.22;94784.50;5135379;27;20199;-82
2022/09/20 10:23:55;;;;;;;1.77;1.30;;;;;;;19.19;41.57;94780.72;5132375;27;20194;-82
2022/09/20 10:26:38;;;;;;;1.48;1.38;;;;;;;19.67;40.26;94781.91;5125752;27;21518;-81
2022/09/20 10:29:17;;;;;;;1.35;1.25;;;;;;;20.28;39.21;94778.97;5128829;27;20674;-82
2022/09/20 10:31:56;;;;;;;2.17;1.50;;;;;;;20.34;36.85;94794.50;5131508;27;20202;-82
2022/09/20 10:34:52;;;;;;;3.10;1.50;;;;;;;19.77;38.30;94796.88;5130115;27;20218;-81
2022/09/20 10:37:31;;;;;;;2.90;1.40;;;;;;;19.48;37.75;94783.56;5128403;27;20199;-81
2022/09/20 10:40:08;;;;;;;3.40;1.60;;;;;;;19.33;37.84;94788.09;5129716;27;20218;-81
2022/09/20 10:45:33;;;;;;;1.45;1.30;;;;;;;19.23;37.88;94779.16;5131958;27;20220;-82
2022/09/20 10:48:06;;;;;;;1.70;1.60;;;;;;;18.95;39.70;94785.03;5134112;27;20195;-82
2022/09/20 10:50:42;;;;;;;2.80;1.60;;;;;;;18.93;40.17;94787.13;5136917;27;20248;-82
2022/09/20 10:53:26;;;;;;;2.00;1.80;;;;;;;19.23;39.19;94794.97;5137419;27;20242;-82
2022/09/20 10:56:08;;;;;;;1.70;1.60;;;;;;;19.14;39.59;94786.03;5133909;27;20259;-81
2022/09/20 10:59:07;;;;;;;2.10;1.80;;;;;;;19.45;37.97;94801.78;5136328;27;20206;-81
2022/09/20 11:01:42;;;;;;;1.80;1.70;;;;;;;19.22;37.63;94790.75;5133739;27;20191;-81
2022/09/20 11:04:51;;;;;;;2.00;1.50;;;;;;;18.81;37.82;94772.66;5134395;27;20202;-82
2022/09/20 11:07:24;;;;;;;2.20;2.00;;;;;;;19.13;37.86;94778.41;5124907;27;20218;-81
2022/09/20 11:10:00;;;;;;;1.70;1.60;;;;;;;19.59;37.13;94777.22;5136950;27;20277;-81
2022/09/20 11:12:37;;;;;;;2.90;2.08;;;;;;;19.97;36.05;94790.75;5134055;27;20205;-81
2022/09/20 11:15:14;;;;;;;1.70;1.60;;;;;;;19.65;35.14;94770.06;5137239;27;20223;-81
2022/09/20 11:17:45;;;;;;;1.57;1.47;;;;;;;19.19;35.96;94769.44;5131948;27;20195;-81
2022/09/20 11:20:22;;;;;;;1.73;1.63;;;;;;;18.96;37.41;94762.88;5139896;27;20610;-81
2022/09/20 11:22:56;;;;;;;1.60;1.50;;;;;;;19.02;38.12;94767.06;5139182;27;20225;-80
2022/09/20 11:25:30;;;;;;;1.77;1.67;;;;;;;19.32;37.68;94758.28;5135978;27;20198;-81
2022/09/20 11:28:02;;;;;;;1.83;1.33;;;;;;;19.01;38.56;94773.41;5132089;27;20203;-80
2022/09/20 11:30:33;;;;;;;1.40;1.30;;;;;;;18.67;38.84;94772.44;5129721;27;20199;-80
2022/09/20 11:33:07;;;;;;;2.80;1.40;;;;;;;18.60;39.85;94761.34;5130928;27;20258;-80
2022/09/20 11:35:42;;;;;;;2.90;1.50;;;;;;;19.07;38.67;94767.09;5153534;27;20230;-80
2022/09/20 11:38:15;;;;;;;1.63;1.30;;;;;;;19.38;38.15;94759.88;5153156;27;20235;-81
2022/09/20 11:40:48;;;;;;;1.47;1.30;;;;;;;19.65;37.31;94762.16;5149568;27;20202;-81
2022/09/20 11:43:18;;;;;;;1.50;1.40;;;;;;;20.28;36.82;94771.03;5145470;27;20202;-82
2022/09/20 11:45:48;;;;;;;2.35;1.48;;;;;;;20.62;35.50;94760.47;5134877;27;20650;-81
2022/09/20 11:48:21;;;;;;;1.60;1.27;;;;;;;20.58;35.67;94765.50;5144051;27;20198;-80
2022/09/20 11:51:19;;;;;;;5.97;1.45;;;;;;;20.19;36.40;94752.31;5144297;27;20195;-82
2022/09/20 11:54:03;;;;;;;3.25;2.10;;;;;;;19.37;37.71;94742.47;5134712;27;20193;-81
2022/09/20 11:56:33;;;;;;;2.92;1.67;;;;;;;19.51;38.03;94742.72;5132001;27;20222;-81
2022/09/20 11:59:03;;;;;;;2.08;1.60;;;;;;;20.07;36.90;94746.59;5146378;27;20687;-82
2022/09/20 12:01:32;;;;;;;2.55;1.38;;;;;;;20.73;35.35;94743.44;5153982;27;20191;-81
2022/09/20 12:04:02;;;;;;;1.60;1.50;;;;;;;20.49;35.33;94734.69;5143914;27;20203;-82
2022/09/20 12:06:33;;;;;;;4.28;1.70;;;;;;;19.98;36.60;94745.59;5150852;27;20707;-81
2022/09/20 12:09:04;;;;;;;2.40;1.50;;;;;;;19.87;37.12;94738.03;5146737;27;20199;-81
2022/09/20 12:11:34;;;;;;;1.70;1.60;;;;;;;20.04;37.06;94741.88;5147963;27;20199;-82
2022/09/20 12:14:05;;;;;;;2.22;1.70;;;;;;;19.63;37.40;94741.31;5153485;27;20278;-82
2022/09/20 12:16:41;;;;;;;2.00;1.80;;;;;;;19.47;37.64;94736.38;5141084;27;20556;-81
2022/09/20 12:19:11;;;;;;;2.08;1.88;;;;;;;20.20;35.65;94747.84;5150271;27;20206;-81
2022/09/20 12:22:26;;;;;;;1.55;1.45;;;;;;;20.68;34.51;94744.31;5141380;27;20206;-81
2022/09/20 12:25:27;;;;;;;2.75;1.40;;;;;;;21.49;34.49;94736.31;5133633;27;20202;-81
2022/09/20 12:27:57;;;;;;;1.42;1.33;;;;;;;21.82;31.99;94739.84;5153323;27;20206;-82
2022/09/20 12:30:24;;;;;;;1.60;1.50;;;;;;;21.65;32.41;94741.41;5134708;27;20248;-82
2022/09/20 12:32:55;;;;;;;1.50;1.30;;;;;;;21.67;32.99;94734.78;5146912;27;20583;-82
2022/09/20 12:36:18;;;;;;;3.78;1.50;;;;;;;21.26;33.52;94738.97;5144710;27;20234;-82